Time;durP1;ratioP1;P1;durP2;ratioP2;P2;SDS_P1;SDS_P2;PMS_P1;PMS_P2;Temp;Humidity;BMP_temperature;BMP_pressure;BME280_temperature;BME280_humidity;BME280_pressure;Samples;Min_cycle;Max_cycle;Signal;HPM_P1;HPM_P2
2022/04/23 00:01:17;;;;;;;4.10;2.28;;;;;;;16.19;49.32;94099.09;5080253;27;20210;-73
2022/04/23 00:03:44;;;;;;;3.10;1.65;;;;;;;16.07;50.05;94089.72;5082959;28;20739;-72
2022/04/23 00:06:11;;;;;;;3.30;1.83;;;;;;;16.22;49.27;94098.88;5082335;28;20296;-74
2022/04/23 00:08:38;;;;;;;4.28;2.53;;;;;;;15.97;49.53;94101.53;5082166;28;20210;-74
2022/04/23 00:11:04;;;;;;;5.30;2.25;;;;;;;15.90;49.61;94088.31;5082328;28;20206;-72
2022/04/23 00:13:31;;;;;;;3.42;2.33;;;;;;;15.98;49.98;94092.91;5082988;28;20202;-72
2022/04/23 00:16:01;;;;;;;3.47;2.25;;;;;;;15.91;49.50;94086.56;5084153;28;20699;-71
2022/04/23 00:18:27;;;;;;;4.55;2.00;;;;;;;15.89;50.61;94080.75;5083429;28;20668;-72
2022/04/23 00:20:55;;;;;;;4.25;2.72;;;;;;;15.96;50.31;94075.09;5083316;28;20680;-73
2022/04/23 00:23:22;;;;;;;4.03;2.17;;;;;;;15.90;50.08;94084.94;5084718;28;20202;-74
2022/04/23 00:25:52;;;;;;;3.72;1.88;;;;;;;15.94;49.67;94078.69;5084293;28;20236;-73
2022/04/23 00:28:18;;;;;;;2.38;2.17;;;;;;;15.95;50.06;94076.00;5082868;28;20201;-74
2022/04/23 00:30:45;;;;;;;6.70;2.75;;;;;;;15.94;49.83;94076.13;5084166;28;21137;-74
2022/04/23 00:33:14;;;;;;;1.92;1.70;;;;;;;15.82;49.89;94077.00;5082814;28;20201;-75
2022/04/23 00:35:41;;;;;;;2.85;2.03;;;;;;;15.85;49.82;94074.19;5082708;28;20209;-72
2022/04/23 00:38:08;;;;;;;2.83;2.03;;;;;;;15.74;50.51;94066.44;5082369;28;20201;-74
2022/04/23 00:40:35;;;;;;;8.23;1.83;;;;;;;15.76;50.41;94064.59;5083135;28;20197;-74
2022/04/23 00:43:05;;;;;;;4.53;1.95;;;;;;;15.76;50.22;94059.47;5083174;28;20205;-72
2022/04/23 00:45:32;;;;;;;3.17;2.58;;;;;;;15.70;50.64;94068.41;5083603;28;20325;-72
2022/04/23 00:47:59;;;;;;;5.30;1.80;;;;;;;15.59;50.85;94063.22;5082411;28;20269;-74
2022/04/23 00:50:27;;;;;;;2.65;2.40;;;;;;;15.72;50.62;94065.72;5079723;28;20200;-74
2022/04/23 00:52:58;;;;;;;1.98;1.88;;;;;;;15.71;50.36;94064.09;5078762;28;20321;-72
2022/04/23 00:55:26;;;;;;;2.58;1.88;;;;;;;15.62;50.70;94074.03;5082761;28;20201;-72
2022/04/23 00:57:53;;;;;;;2.00;1.80;;;;;;;15.55;51.02;94077.94;5083919;28;20221;-72
2022/04/23 01:00:21;;;;;;;3.63;2.10;;;;;;;15.51;51.16;94073.13;5081497;28;20743;-74
2022/04/23 01:02:48;;;;;;;5.13;2.15;;;;;;;15.56;50.71;94079.59;5082881;28;20670;-72
2022/04/23 01:05:15;;;;;;;5.97;2.22;;;;;;;15.45;51.19;94076.91;5084820;28;20239;-72
2022/04/23 01:07:45;;;;;;;3.20;1.77;;;;;;;15.47;51.37;94085.31;5083389;28;20764;-73
2022/04/23 01:10:12;;;;;;;3.75;2.10;;;;;;;15.59;51.30;94084.47;5081034;28;20197;-73
2022/04/23 01:12:39;;;;;;;5.50;1.90;;;;;;;15.54;50.88;94081.41;5081339;28;20209;-73
2022/04/23 01:15:08;;;;;;;3.17;1.95;;;;;;;15.54;52.19;94078.03;5081377;28;20636;-75
2022/04/23 01:17:35;;;;;;;3.03;2.30;;;;;;;15.47;52.70;94074.25;5080489;28;20300;-74
2022/04/23 01:20:07;;;;;;;4.90;3.03;;;;;;;15.30;52.89;94062.59;5083360;28;20216;-73
2022/04/23 01:22:36;;;;;;;3.33;2.92;;;;;;;15.32;52.92;94071.00;5080632;28;20715;-73
2022/04/23 01:25:05;;;;;;;4.03;2.60;;;;;;;15.28;52.91;94047.34;5080193;28;20322;-73
2022/04/23 01:27:31;;;;;;;7.15;3.95;;;;;;;15.37;52.80;94056.13;5083782;28;20280;-73
2022/04/23 01:29:59;;;;;;;21.70;11.73;;;;;;;15.41;52.37;94064.41;5084219;28;20197;-73
2022/04/23 01:32:25;;;;;;;12.57;6.60;;;;;;;15.44;52.73;94059.09;5083393;28;20737;-75
2022/04/23 01:34:52;;;;;;;7.65;5.57;;;;;;;15.58;52.16;94077.75;5083964;28;20192;-73
2022/04/23 01:37:21;;;;;;;5.15;3.80;;;;;;;15.74;51.50;94071.56;5082655;28;20293;-74
2022/04/23 01:39:48;;;;;;;12.02;4.70;;;;;;;15.84;51.69;94067.44;5083560;28;20717;-75
2022/04/23 01:42:17;;;;;;;17.88;4.35;;;;;;;15.83;51.69;94081.19;5083339;28;20785;-73
2022/04/23 01:44:44;;;;;;;5.53;1.73;;;;;;;15.42;52.11;94077.13;5083984;28;20193;-72
2022/04/23 01:47:11;;;;;;;8.50;2.40;;;;;;;15.56;52.03;94084.72;5083740;28;20796;-74
2022/04/23 01:49:39;;;;;;;3.65;2.25;;;;;;;15.64;52.34;94092.69;5083403;28;20204;-73
2022/04/23 01:52:06;;;;;;;3.03;2.30;;;;;;;15.43;52.89;94083.06;5083632;28;20208;-73
2022/04/23 01:54:34;;;;;;;4.28;2.25;;;;;;;15.41;53.41;94085.72;5084436;28;20588;-73
2022/04/23 01:57:01;;;;;;;5.63;2.60;;;;;;;15.34;53.71;94091.38;5082819;28;20204;-74
2022/04/23 01:59:28;;;;;;;2.28;1.90;;;;;;;15.31;53.52;94077.03;5084696;28;20614;-73
2022/04/23 02:01:55;;;;;;;4.68;2.00;;;;;;;15.20;53.95;94079.50;5083878;28;20197;-75
2022/04/23 02:04:22;;;;;;;3.53;2.10;;;;;;;15.22;53.38;94081.03;5083841;28;20205;-72
2022/04/23 02:06:48;;;;;;;4.30;2.78;;;;;;;15.24;53.74;94083.50;5083272;28;20228;-72
2022/04/23 02:09:16;;;;;;;3.25;1.80;;;;;;;15.30;53.71;94089.03;5083891;28;20201;-73
2022/04/23 02:11:45;;;;;;;3.33;1.85;;;;;;;15.30;53.25;94083.09;5084406;28;20312;-73
2022/04/23 02:14:11;;;;;;;5.53;2.08;;;;;;;15.32;53.77;94086.34;5087667;28;20288;-73
2022/04/23 02:16:39;;;;;;;10.10;3.13;;;;;;;15.34;53.59;94084.53;5084943;28;20201;-73
2022/04/23 02:19:06;;;;;;;4.10;2.20;;;;;;;15.35;53.22;94081.00;5087205;28;20197;-73
2022/04/23 02:21:32;;;;;;;3.45;1.98;;;;;;;15.34;54.06;94078.56;5088058;28;20197;-73
2022/04/23 02:24:00;;;;;;;1.65;1.55;;;;;;;15.41;53.56;94070.34;5087829;28;20232;-72
2022/04/23 02:26:26;;;;;;;5.03;2.63;;;;;;;15.37;54.08;94083.47;5086480;28;20233;-74
2022/04/23 02:28:55;;;;;;;4.88;2.00;;;;;;;15.22;54.34;94090.44;5086938;28;20201;-75
2022/04/23 02:31:21;;;;;;;4.53;2.28;;;;;;;15.27;54.36;94089.22;5086432;28;20204;-73
2022/04/23 02:33:48;;;;;;;2.65;2.40;;;;;;;15.15;54.67;94090.03;5087416;28;20562;-72
2022/04/23 02:36:15;;;;;;;3.33;2.40;;;;;;;15.16;54.61;94089.09;5086304;28;20213;-74
2022/04/23 02:38:43;;;;;;;4.15;2.15;;;;;;;15.14;54.75;94088.38;5087560;28;20212;-72
2022/04/23 02:41:10;;;;;;;3.28;2.35;;;;;;;15.09;55.10;94092.19;5086830;28;20204;-72
2022/04/23 02:43:38;;;;;;;7.25;2.50;;;;;;;15.04;55.37;94091.69;5087773;28;20270;-73
2022/04/23 02:46:06;;;;;;;5.55;2.13;;;;;;;15.12;54.84;94072.31;5085916;28;20236;-74
2022/04/23 02:48:33;;;;;;;3.13;2.13;;;;;;;15.19;54.45;94088.91;5087249;28;20197;-73
2022/04/23 02:51:00;;;;;;;2.70;2.22;;;;;;;15.21;54.40;94093.94;5087031;28;20193;-75
2022/04/23 02:53:28;;;;;;;4.95;2.05;;;;;;;15.18;53.94;94094.13;5086796;28;20209;-72
2022/04/23 02:55:56;;;;;;;3.88;2.13;;;;;;;15.25;54.41;94080.00;5085507;28;20202;-74
2022/04/23 02:58:25;;;;;;;4.90;4.50;;;;;;;15.19;54.39;94082.97;5086825;28;20266;-73
2022/04/23 03:00:53;;;;;;;5.90;3.00;;;;;;;15.39;53.75;94091.84;5086378;28;22482;-73
2022/04/23 03:03:22;;;;;;;4.72;2.33;;;;;;;15.19;54.29;94106.00;5087721;28;20300;-72
2022/04/23 03:05:53;;;;;;;1.95;1.85;;;;;;;14.74;55.86;94102.16;5086620;28;20764;-76
2022/04/23 03:08:20;;;;;;;3.53;2.80;;;;;;;14.34;57.37;94097.03;5086255;28;20234;-74
2022/04/23 03:10:47;;;;;;;5.85;3.05;;;;;;;14.22;57.71;94103.72;5086357;28;20266;-72
2022/04/23 03:13:14;;;;;;;7.90;2.35;;;;;;;14.23;58.16;94104.56;5087366;28;20209;-74
2022/04/23 03:15:44;;;;;;;6.85;2.42;;;;;;;14.27;58.36;94098.34;5085817;28;20241;-73
2022/04/23 03:18:13;;;;;;;3.78;2.10;;;;;;;14.53;57.94;94087.31;5086001;28;20215;-73
2022/04/23 03:20:42;;;;;;;4.18;2.45;;;;;;;14.41;58.68;94105.16;5087434;28;20225;-75
2022/04/23 03:23:09;;;;;;;6.15;2.83;;;;;;;14.69;57.27;94105.03;5087325;28;20663;-73
2022/04/23 03:25:36;;;;;;;6.22;2.63;;;;;;;14.83;56.33;94104.97;5087104;28;20632;-73
2022/04/23 03:28:04;;;;;;;6.68;2.72;;;;;;;15.02;56.09;94096.06;5088464;28;20238;-74
2022/04/23 03:30:31;;;;;;;4.72;2.65;;;;;;;15.06;55.99;94105.19;5088160;28;20201;-73
2022/04/23 03:32:59;;;;;;;3.35;2.65;;;;;;;15.01;56.24;94109.78;5087668;28;20205;-73
2022/04/23 03:35:26;;;;;;;7.90;2.70;;;;;;;14.91;57.40;94109.56;5088306;28;20210;-73
2022/04/23 03:37:55;;;;;;;6.10;2.63;;;;;;;14.62;58.15;94111.44;5086766;28;20266;-75
2022/04/23 03:40:22;;;;;;;4.43;2.97;;;;;;;14.75;57.82;94107.19;5088949;28;20226;-73
2022/04/23 03:42:49;;;;;;;5.40;2.90;;;;;;;14.64;58.59;94115.53;5087367;28;20220;-72
2022/04/23 03:45:17;;;;;;;3.92;3.53;;;;;;;14.66;58.23;94123.13;5088307;28;20202;-72
2022/04/23 03:47:47;;;;;;;8.13;2.95;;;;;;;14.57;58.35;94121.16;5087606;28;20254;-73
2022/04/23 03:50:15;;;;;;;3.40;3.10;;;;;;;14.53;58.92;94133.31;5088406;28;20250;-72
2022/04/23 03:52:44;;;;;;;2.88;2.22;;;;;;;14.73;58.69;94134.59;5086919;27;20684;-72
2022/04/23 03:55:13;;;;;;;5.90;2.33;;;;;;;14.59;59.43;94139.78;5087188;28;20612;-72
2022/04/23 03:57:47;;;;;;;5.68;3.13;;;;;;;14.59;59.43;94139.78;5087714;28;20257;-71
2022/04/23 04:00:16;;;;;;;4.22;3.47;;;;;;;14.61;59.46;94125.97;5088328;28;20193;-73
2022/04/23 04:02:43;;;;;;;5.15;2.80;;;;;;;14.50;60.02;94142.91;5086933;28;20688;-72
2022/04/23 04:05:11;;;;;;;6.38;3.83;;;;;;;14.56;59.63;94140.81;5086915;28;20197;-73
2022/04/23 04:07:42;;;;;;;4.80;3.22;;;;;;;14.64;59.71;94145.41;5086773;28;21266;-72
2022/04/23 04:10:10;;;;;;;4.90;3.47;;;;;;;14.77;59.08;94136.03;5087920;28;20205;-75
2022/04/23 04:12:38;;;;;;;3.67;3.25;;;;;;;14.88;58.51;94140.44;5086938;28;20207;-74
2022/04/23 04:15:07;;;;;;;5.45;3.60;;;;;;;14.80;58.96;94146.09;5087685;27;20299;-73
2022/04/23 04:17:34;;;;;;;6.22;4.22;;;;;;;14.87;58.79;94149.03;5085263;28;20197;-73
2022/04/23 04:20:01;;;;;;;7.60;4.00;;;;;;;14.89;58.11;94145.47;5087042;28;20224;-74
2022/04/23 04:22:29;;;;;;;6.63;3.83;;;;;;;15.12;57.18;94148.25;5086729;28;20349;-76
2022/04/23 04:24:56;;;;;;;4.93;3.88;;;;;;;15.24;57.09;94137.22;5087239;28;20220;-74
2022/04/23 04:27:23;;;;;;;4.43;3.80;;;;;;;15.47;57.29;94157.00;5084812;28;20615;-73
2022/04/23 04:29:52;;;;;;;9.30;3.88;;;;;;;15.57;56.49;94149.56;5086558;28;20636;-73
2022/04/23 04:32:19;;;;;;;14.02;3.92;;;;;;;15.51;56.33;94152.50;5087044;28;20204;-73
2022/04/23 04:34:46;;;;;;;7.40;4.20;;;;;;;15.26;57.29;94159.25;5087675;28;20211;-73
2022/04/23 04:37:13;;;;;;;5.68;3.42;;;;;;;15.41;56.41;94164.25;5086036;28;21070;-73
2022/04/23 04:39:42;;;;;;;6.97;3.38;;;;;;;15.21;57.37;94166.41;5085851;28;20200;-73
2022/04/23 04:42:10;;;;;;;5.15;3.65;;;;;;;15.30;55.97;94155.56;5087159;28;20205;-74
2022/04/23 04:44:37;;;;;;;13.05;3.45;;;;;;;15.13;56.42;94172.94;5085334;28;20204;-73
2022/04/23 04:47:08;;;;;;;11.45;3.50;;;;;;;15.48;56.00;94174.00;5086255;28;20311;-73
2022/04/23 04:49:35;;;;;;;6.60;3.00;;;;;;;15.74;55.38;94171.47;5086380;28;20238;-73
2022/04/23 04:52:02;;;;;;;10.38;3.42;;;;;;;15.82;55.00;94185.41;5086919;28;20465;-74
2022/04/23 04:54:28;;;;;;;10.80;3.80;;;;;;;15.80;55.39;94179.56;5086835;28;20250;-73
2022/04/23 04:56:56;;;;;;;4.50;3.63;;;;;;;15.73;55.90;94182.63;5086349;28;20244;-74
2022/04/23 04:59:24;;;;;;;7.78;3.28;;;;;;;16.06;55.53;94195.72;5085923;28;20782;-73
2022/04/23 05:01:51;;;;;;;10.70;4.45;;;;;;;16.36;54.42;94202.19;5086579;28;20205;-73
2022/04/23 05:04:20;;;;;;;9.80;4.40;;;;;;;16.84;53.33;94201.31;5085830;28;20212;-73
2022/04/23 05:06:47;;;;;;;8.90;4.40;;;;;;;17.20;53.83;94217.56;5087377;28;20659;-73
2022/04/23 05:09:14;;;;;;;12.13;7.15;;;;;;;17.19;52.07;94205.69;5085393;28;20213;-74
2022/04/23 05:11:41;;;;;;;7.70;5.88;;;;;;;16.67;54.04;94227.38;5085878;28;20197;-75
2022/04/23 05:14:08;;;;;;;9.43;4.55;;;;;;;16.22;55.18;94227.06;5085725;28;20789;-73
2022/04/23 05:16:34;;;;;;;4.97;3.60;;;;;;;16.06;56.29;94236.72;5087339;28;20498;-73
2022/04/23 05:19:01;;;;;;;4.47;3.40;;;;;;;15.84;57.69;94228.81;5084861;28;20760;-73
2022/04/23 05:21:30;;;;;;;3.65;3.05;;;;;;;15.72;58.98;94232.22;5085886;28;20205;-73
2022/04/23 05:23:56;;;;;;;4.10;3.00;;;;;;;15.63;60.07;94233.63;5086729;28;20674;-73
2022/04/23 05:26:23;;;;;;;2.80;2.50;;;;;;;15.48;61.53;94234.63;5086063;28;21198;-72
2022/04/23 05:28:50;;;;;;;2.97;2.78;;;;;;;15.37;62.14;94240.44;5085096;28;20282;-72
2022/04/23 05:31:16;;;;;;;4.28;2.80;;;;;;;15.51;62.68;94242.94;5087118;28;20729;-72
2022/04/23 05:33:43;;;;;;;4.13;2.60;;;;;;;15.68;62.61;94244.41;5084912;28;20204;-73
2022/04/23 05:36:10;;;;;;;5.65;2.92;;;;;;;15.78;62.62;94247.19;5087155;28;20211;-74
2022/04/23 05:38:39;;;;;;;12.48;5.97;;;;;;;15.83;62.07;94260.50;5085015;28;20209;-72
2022/04/23 05:41:05;;;;;;;10.40;4.32;;;;;;;16.01;62.14;94248.19;5086192;28;20209;-73
2022/04/23 05:43:32;;;;;;;7.07;3.30;;;;;;;16.11;62.51;94250.03;5086817;28;20205;-71
2022/04/23 05:46:00;;;;;;;2.90;2.63;;;;;;;16.22;62.16;94242.44;5087026;28;20189;-72
2022/04/23 05:48:26;;;;;;;12.00;7.20;;;;;;;16.81;61.15;94237.50;5090596;28;20251;-72
2022/04/23 05:50:53;;;;;;;4.18;3.45;;;;;;;18.08;58.13;94239.25;5089984;28;20193;-72
2022/04/23 05:53:20;;;;;;;5.95;3.28;;;;;;;20.43;51.35;94225.50;5089828;28;20213;-73
2022/04/23 05:55:49;;;;;;;6.00;2.63;;;;;;;23.01;45.23;94222.69;5088418;28;20208;-73
2022/04/23 05:58:16;;;;;;;4.15;2.92;;;;;;;24.56;41.06;94223.84;5090604;27;20692;-72
2022/04/23 06:00:42;;;;;;;3.60;2.65;;;;;;;26.26;37.47;94216.22;5089264;28;20201;-73
2022/04/23 06:03:09;;;;;;;2.88;2.30;;;;;;;26.73;35.98;94215.41;5088810;28;20591;-74
2022/04/23 06:05:36;;;;;;;8.45;2.67;;;;;;;25.33;37.79;94194.97;5090233;28;20217;-74
2022/04/23 06:08:03;;;;;;;4.43;2.75;;;;;;;23.72;41.72;94217.50;5089647;28;20611;-74
2022/04/23 06:10:30;;;;;;;4.22;2.63;;;;;;;23.04;42.65;94222.38;5089524;28;20228;-75
2022/04/23 06:12:58;;;;;;;2.95;2.70;;;;;;;22.73;43.82;94223.66;5089585;28;20212;-75
2022/04/23 06:15:25;;;;;;;4.60;3.00;;;;;;;23.07;43.78;94224.69;5088027;28;20205;-76
2022/04/23 06:17:51;;;;;;;3.83;3.33;;;;;;;22.58;43.69;94235.44;5090494;28;20296;-74
2022/04/23 06:20:18;;;;;;;4.95;3.00;;;;;;;21.64;45.44;94232.84;5088965;28;20286;-72
2022/04/23 06:22:45;;;;;;;3.65;3.33;;;;;;;20.40;49.00;94249.78;5088311;28;20590;-75
2022/04/23 06:25:12;;;;;;;5.38;3.60;;;;;;;19.64;51.19;94246.66;5089417;28;20232;-72
2022/04/23 06:27:39;;;;;;;5.47;3.30;;;;;;;19.99;51.11;94240.34;5091525;28;20224;-73
2022/04/23 06:30:09;;;;;;;2.92;2.72;;;;;;;21.94;47.18;94236.22;5092417;28;20205;-73
2022/04/23 06:32:36;;;;;;;6.03;2.70;;;;;;;23.41;42.47;94240.41;5089916;28;20309;-72
2022/04/23 06:35:04;;;;;;;2.42;2.10;;;;;;;25.02;39.82;94233.75;5088797;28;20193;-75
2022/04/23 06:37:32;;;;;;;3.38;3.08;;;;;;;26.84;36.76;94241.13;5089451;28;20193;-74
2022/04/23 06:39:58;;;;;;;18.17;10.95;;;;;;;28.01;34.52;94235.63;5089314;28;20579;-75
2022/04/23 06:42:25;;;;;;;3.33;2.20;;;;;;;29.09;32.58;94232.53;5088300;28;20197;-75
2022/04/23 06:44:52;;;;;;;10.18;6.70;;;;;;;29.40;32.23;94234.91;5086963;28;20201;-74
2022/04/23 06:47:20;;;;;;;9.75;4.90;;;;;;;29.84;31.06;94232.09;5085655;28;20294;-75
2022/04/23 06:49:47;;;;;;;3.97;2.45;;;;;;;30.91;29.16;94235.25;5087763;28;20197;-74
2022/04/23 06:52:14;;;;;;;2.42;1.98;;;;;;;31.28;29.18;94241.03;5090022;28;20278;-74
2022/04/23 06:54:40;;;;;;;4.63;2.83;;;;;;;31.36;28.89;94238.25;5088359;28;20205;-75
2022/04/23 06:57:07;;;;;;;7.88;5.68;;;;;;;30.42;28.80;94220.44;5089928;28;20200;-74
2022/04/23 06:59:34;;;;;;;5.60;3.70;;;;;;;31.24;28.32;94239.81;5088830;28;20262;-74
2022/04/23 07:02:03;;;;;;;3.03;2.28;;;;;;;30.36;30.26;94242.19;5088605;28;20340;-77
2022/04/23 07:04:32;;;;;;;4.05;2.30;;;;;;;30.30;30.29;94240.31;5088834;28;20205;-77
2022/04/23 07:06:58;;;;;;;2.63;1.83;;;;;;;29.92;30.42;94239.00;5088678;28;20232;-77
2022/04/23 07:09:25;;;;;;;4.30;1.77;;;;;;;30.17;29.83;94250.72;5088280;28;20246;-75
2022/04/23 07:11:52;;;;;;;7.07;2.35;;;;;;;29.28;31.88;94252.84;5089302;28;20224;-77
2022/04/23 07:14:19;;;;;;;5.38;2.15;;;;;;;29.34;31.83;94243.47;5088195;28;20201;-74
2022/04/23 07:16:47;;;;;;;2.95;2.13;;;;;;;28.10;33.32;94252.88;5087602;28;20441;-74
2022/04/23 07:19:14;;;;;;;3.83;2.70;;;;;;;27.91;33.71;94255.97;5088120;28;20201;-74
2022/04/23 07:21:42;;;;;;;2.25;2.05;;;;;;;27.92;33.38;94262.84;5089329;28;20224;-76
2022/04/23 07:24:11;;;;;;;5.43;2.65;;;;;;;27.69;33.73;94259.44;5087985;28;20224;-75
2022/04/23 07:26:39;;;;;;;4.35;2.22;;;;;;;27.18;34.50;94263.47;5088984;28;20197;-74
2022/04/23 07:29:07;;;;;;;3.08;2.33;;;;;;;26.07;36.32;94279.88;5086839;28;20197;-74
2022/04/23 07:31:36;;;;;;;5.45;1.67;;;;;;;25.28;37.44;94279.66;5087599;28;20197;-74
2022/04/23 07:39:34;;;;;;;6.20;2.42;;;;;;;22.97;42.92;94288.75;5088204;28;20283;-73
2022/04/23 07:42:00;;;;;;;1.92;1.83;;;;;;;22.48;43.78;94289.06;5088274;28;20205;-75
2022/04/23 07:44:27;;;;;;;5.35;4.20;;;;;;;21.56;46.45;94299.13;5088147;28;20257;-71
2022/04/23 07:46:54;;;;;;;30.45;18.40;;;;;;;21.19;47.48;94306.69;5087887;28;20271;-72
2022/04/23 07:49:21;;;;;;;4.28;3.30;;;;;;;20.92;49.21;94297.78;5087924;28;20629;-71
2022/04/23 07:51:50;;;;;;;9.68;5.22;;;;;;;20.78;50.38;94303.34;5084911;28;20954;-72
2022/04/23 07:54:17;;;;;;;5.25;2.97;;;;;;;21.09;49.93;94306.66;5087543;28;20292;-72
2022/04/23 07:56:44;;;;;;;3.67;2.88;;;;;;;22.10;47.84;94314.09;5087213;28;20205;-72
2022/04/23 07:59:12;;;;;;;4.03;3.00;;;;;;;23.01;45.46;94305.59;5087835;28;20215;-72
2022/04/23 08:01:39;;;;;;;7.45;3.33;;;;;;;23.04;45.59;94310.50;5087606;28;20253;-72
2022/04/23 08:04:06;;;;;;;3.60;2.80;;;;;;;23.05;44.59;94312.13;5085925;28;20193;-73
2022/04/23 08:06:34;;;;;;;3.30;2.40;;;;;;;22.66;45.88;94321.03;5087291;28;20739;-75
2022/04/23 08:09:03;;;;;;;4.68;2.22;;;;;;;22.20;46.62;94307.13;5086620;28;20233;-76
2022/04/23 08:11:29;;;;;;;3.05;2.13;;;;;;;22.46;46.38;94319.47;5088117;28;20197;-75
2022/04/23 08:13:57;;;;;;;3.40;2.50;;;;;;;21.84;47.07;94331.09;5087744;28;20213;-73
2022/04/23 08:16:26;;;;;;;5.72;5.22;;;;;;;21.85;46.72;94322.38;5087641;28;20205;-73
2022/04/23 08:18:54;;;;;;;9.85;6.57;;;;;;;22.16;46.11;94329.06;5086860;28;20209;-73
2022/04/23 08:21:22;;;;;;;4.93;4.00;;;;;;;22.27;45.68;94334.06;5086401;28;20391;-73
2022/04/23 08:23:48;;;;;;;4.18;1.85;;;;;;;22.14;45.53;94328.38;5086123;28;20318;-75
2022/04/23 08:26:17;;;;;;;3.83;1.90;;;;;;;21.88;45.70;94329.88;5087227;28;20665;-73
2022/04/23 08:31:30;;;;;;;2.85;1.70;;;;;;;20.63;47.99;94330.44;5068644;28;20211;-73
2022/04/23 08:34:00;;;;;;;4.75;2.85;;;;;;;20.45;48.91;94326.84;5086414;28;20254;-74
2022/04/23 08:36:31;;;;;;;3.92;1.73;;;;;;;21.09;47.27;94326.50;5087276;28;20205;-73
2022/04/23 08:39:00;;;;;;;4.22;1.83;;;;;;;21.87;45.08;94321.31;5086505;28;20298;-74
2022/04/23 08:41:29;;;;;;;3.50;3.28;;;;;;;22.51;44.81;94328.44;5086707;27;20289;-74
2022/04/23 08:44:05;;;;;;;6.25;3.15;;;;;;;22.84;43.17;94327.09;5086768;28;20270;-74
2022/04/23 08:46:32;;;;;;;3.13;2.83;;;;;;;23.15;42.75;94327.63;5086609;28;20611;-76
2022/04/23 08:49:09;;;;;;;1.95;1.77;;;;;;;23.27;41.29;94328.22;5084698;28;20220;-74
2022/04/23 08:51:38;;;;;;;2.65;1.63;;;;;;;22.56;42.10;94330.59;5081555;28;20669;-73
2022/04/23 08:54:07;;;;;;;3.97;1.73;;;;;;;21.91;43.92;94334.78;5084382;28;20314;-74
2022/04/23 08:56:37;;;;;;;1.65;1.55;;;;;;;21.60;44.99;94337.50;5086327;28;20198;-74
2022/04/23 08:59:06;;;;;;;2.90;1.40;;;;;;;21.17;45.57;94342.19;5084226;28;20201;-76
2022/04/23 09:01:33;;;;;;;2.20;1.65;;;;;;;20.64;46.51;94332.06;5085649;28;20280;-74
2022/04/23 09:04:01;;;;;;;4.13;2.30;;;;;;;20.38;47.95;94342.81;5085653;28;20208;-74
2022/04/23 09:06:40;;;;;;;5.65;4.40;;;;;;;19.98;47.82;94341.88;5085959;28;20208;-74
2022/04/23 09:09:12;;;;;;;2.95;2.75;;;;;;;19.66;48.91;94337.56;5080781;27;20239;-73
2022/04/23 09:11:41;;;;;;;8.38;1.63;;;;;;;19.76;48.92;94334.25;5078798;28;20747;-73
2022/04/23 09:14:10;;;;;;;2.50;1.90;;;;;;;20.36;48.33;94339.53;5082244;28;20304;-75
2022/04/23 09:25:10;;;;;;;1.50;1.40;;;;;;;21.28;45.41;94334.34;5083302;28;20377;-73
2022/04/23 09:27:41;;;;;;;1.63;1.52;;;;;;;21.20;45.81;94321.25;5083986;28;20229;-76
2022/04/23 09:30:09;;;;;;;2.50;1.27;;;;;;;21.03;46.43;94328.66;5084607;28;20837;-73
2022/04/23 09:32:36;;;;;;;1.30;1.08;;;;;;;20.90;46.42;94319.53;5085710;28;20711;-73
2022/04/23 09:35:11;;;;;;;3.92;1.77;;;;;;;20.81;47.45;94338.38;5081679;28;20208;-73
2022/04/23 09:40:24;;;;;;;3.00;1.90;;;;;;;20.84;46.82;94331.19;5081908;28;20211;-74
2022/04/23 09:42:59;;;;;;;1.40;1.30;;;;;;;20.98;46.70;94325.69;5084938;28;20201;-73
2022/04/23 09:45:28;;;;;;;1.83;1.50;;;;;;;20.72;47.85;94319.34;5084257;28;20199;-73
2022/04/23 09:47:56;;;;;;;3.50;1.98;;;;;;;20.74;47.36;94317.47;5082666;28;20229;-74
2022/04/23 09:50:23;;;;;;;2.30;1.25;;;;;;;20.88;47.18;94309.34;5082791;28;20209;-73
2022/04/23 09:52:50;;;;;;;2.65;1.50;;;;;;;21.03;47.02;94292.50;5081115;28;20197;-73
2022/04/23 09:55:20;;;;;;;1.25;1.20;;;;;;;21.64;45.50;94307.84;5083137;28;20732;-73
2022/04/23 09:57:48;;;;;;;3.15;1.60;;;;;;;21.60;45.84;94300.50;5083891;28;20582;-73
2022/04/23 10:00:17;;;;;;;1.50;1.30;;;;;;;21.99;44.77;94301.28;5083664;28;20198;-72
2022/04/23 10:02:46;;;;;;;2.22;1.70;;;;;;;21.78;46.15;94298.06;5084491;28;20355;-73
2022/04/23 10:05:17;;;;;;;3.63;1.83;;;;;;;21.72;45.56;94300.22;5083778;28;20288;-73
2022/04/23 10:07:49;;;;;;;4.13;1.83;;;;;;;21.67;45.43;94286.88;5082111;28;20676;-73
2022/04/23 10:10:17;;;;;;;2.58;1.50;;;;;;;21.82;45.79;94282.09;5084572;28;20203;-74
2022/04/23 10:12:46;;;;;;;2.70;1.50;;;;;;;22.09;44.79;94299.50;5084850;28;20924;-74
2022/04/23 10:15:15;;;;;;;6.35;3.20;;;;;;;22.32;44.23;94300.00;5083853;28;20293;-75
2022/04/23 10:17:43;;;;;;;4.05;2.05;;;;;;;22.70;43.63;94286.13;5083562;28;20280;-76
2022/04/23 10:20:13;;;;;;;8.85;3.15;;;;;;;22.89;43.21;94286.03;5083088;28;20217;-74
2022/04/23 10:22:55;;;;;;;5.60;2.35;;;;;;;22.99;42.62;94280.81;5084490;28;20614;-73
2022/04/23 10:25:30;;;;;;;5.43;2.20;;;;;;;22.62;42.46;94281.63;5079997;28;20236;-75
2022/04/23 10:27:59;;;;;;;5.57;2.15;;;;;;;22.16;43.62;94266.97;5078738;28;20256;-73
2022/04/23 10:30:28;;;;;;;7.30;2.25;;;;;;;22.20;44.23;94275.25;5080909;28;20228;-74
2022/04/23 10:32:56;;;;;;;10.98;3.90;;;;;;;22.52;43.57;94278.25;5083914;28;20198;-76
2022/04/23 10:35:38;;;;;;;3.20;2.55;;;;;;;22.74;42.84;94279.69;5087807;28;20209;-75
2022/04/23 10:38:20;;;;;;;5.70;2.97;;;;;;;23.12;43.38;94285.63;5085415;28;20813;-74
2022/04/23 10:40:47;;;;;;;4.85;2.17;;;;;;;22.87;42.71;94282.78;5082954;28;20207;-73
2022/04/23 10:43:19;;;;;;;23.80;15.52;;;;;;;22.37;43.28;94279.69;5083604;28;20726;-77
2022/04/23 10:45:48;;;;;;;7.05;3.45;;;;;;;22.45;43.63;94285.00;5086435;28;20267;-77
2022/04/23 10:48:27;;;;;;;7.88;2.78;;;;;;;22.25;44.42;94286.81;5077908;28;20270;-75
2022/04/23 10:51:05;;;;;;;6.53;2.10;;;;;;;22.02;44.58;94290.69;5080822;28;20286;-73
2022/04/23 10:53:55;;;;;;;3.50;2.63;;;;;;;21.64;45.45;94281.16;5083740;28;20632;-71
2022/04/23 10:56:23;;;;;;;4.15;2.17;;;;;;;21.23;46.59;94288.25;5080353;28;20223;-73
2022/04/23 10:58:52;;;;;;;5.90;2.78;;;;;;;21.26;46.25;94284.56;5084485;28;20197;-72
2022/04/23 11:01:21;;;;;;;6.97;2.60;;;;;;;21.48;46.21;94280.91;5081232;28;20686;-74
2022/04/23 11:03:59;;;;;;;6.82;2.53;;;;;;;21.94;45.64;94283.59;5084816;28;20338;-75
2022/04/23 11:12:32;;;;;;;8.75;3.35;;;;;;;21.59;43.28;94280.75;5102098;28;20293;-73
2022/04/23 11:15:00;;;;;;;5.38;1.98;;;;;;;21.78;43.32;94285.13;5093098;28;20233;-73
2022/04/23 11:17:55;;;;;;;4.93;2.47;;;;;;;21.87;43.69;94281.69;5092418;28;20676;-74
2022/04/23 11:20:38;;;;;;;5.32;1.98;;;;;;;22.15;43.80;94286.03;5092391;28;20641;-73
2022/04/23 11:23:06;;;;;;;5.45;1.83;;;;;;;22.14;43.89;94284.38;5092552;28;20198;-73
2022/04/23 11:25:34;;;;;;;7.18;3.33;;;;;;;22.39;43.80;94282.97;5091394;28;20225;-74
2022/04/23 11:28:23;;;;;;;11.38;2.45;;;;;;;22.51;42.40;94281.84;5090661;28;20220;-72
2022/04/23 11:30:51;;;;;;;9.65;1.77;;;;;;;22.81;43.31;94273.00;5090314;28;20194;-73
2022/04/23 11:33:18;;;;;;;5.68;2.60;;;;;;;22.88;42.58;94274.03;5090382;28;20278;-75
2022/04/23 11:35:46;;;;;;;4.15;2.35;;;;;;;22.48;43.29;94276.94;5090562;28;20587;-72
2022/04/23 11:38:25;;;;;;;8.07;2.45;;;;;;;21.85;44.40;94253.38;5090163;28;20197;-73
2022/04/23 11:40:52;;;;;;;5.13;2.35;;;;;;;21.99;45.37;94294.34;5090397;28;20198;-72
2022/04/23 11:43:33;;;;;;;5.05;2.47;;;;;;;22.05;44.56;94292.97;5102475;28;20668;-72
2022/04/23 11:46:04;;;;;;;6.45;2.20;;;;;;;21.79;45.23;94299.66;5112716;28;20193;-74
2022/04/23 11:48:50;;;;;;;4.93;1.98;;;;;;;21.33;48.50;94299.38;5111174;28;20771;-73
2022/04/23 11:51:21;;;;;;;12.43;4.00;;;;;;;21.25;49.89;94307.00;5112920;28;20205;-73
2022/04/23 11:53:54;;;;;;;3.80;1.80;;;;;;;21.18;48.84;94300.69;5096008;28;20285;-74
2022/04/23 11:56:30;;;;;;;5.80;1.73;;;;;;;21.37;47.54;94299.94;5092584;28;20193;-73
2022/04/23 11:58:59;;;;;;;3.72;1.35;;;;;;;21.44;47.14;94285.53;5092331;28;20197;-76
2022/04/23 12:01:26;;;;;;;2.33;1.60;;;;;;;21.72;46.73;94300.22;5092465;28;20197;-73
2022/04/23 12:03:55;;;;;;;11.80;7.35;;;;;;;22.01;46.28;94299.41;5107747;28;20199;-73